CheckWX is a tool to help pilots better visualize weather data.  It is not intended as a substitute for an official pre-flight weather briefing.

05:14:44 UTC

EGPK METAR
Glasgow Prestwick Airport
Glasgow, United Kingdom
Current

25 mins ago

EGPK 240450Z 10003KT 9999 FEW045 03/03 Q1034
Observed
Feb-24 @ 04:50 UTC
Wind
  • 100° at 3 KTS
Visibility
10,000+ meters
Flight Rules
VFR
Cloud Levels
  • Few at 4,500' AGL
Temperature
C / 37°F
Dewpoint
C / 37°F
Humidity
100%
Altimeter
30.53" Hg
Pressure
1033.91 hPa
Previous

1 hour ago

EGPK 240350Z 10004KT 9999 FEW045 03/03 Q1034
Observed
Feb-24 @ 03:50 UTC
Wind
  • 100° at 4 KTS
Visibility
10,000+ meters
Flight Rules
VFR
Cloud Levels
  • Few at 4,500' AGL
Temperature
C / 37°F
Dewpoint
C / 37°F
Humidity
100%
Altimeter
30.53" Hg
Pressure
1033.91 hPa
Previous

2 hours ago

EGPK 240250Z 13003KT 9999 FEW045 04/04 Q1034
Observed
Feb-24 @ 02:50 UTC
Wind
  • 130° at 3 KTS
Visibility
10,000+ meters
Flight Rules
VFR
Cloud Levels
  • Few at 4,500' AGL
Temperature
C / 39°F
Dewpoint
C / 39°F
Humidity
100%
Altimeter
30.53" Hg
Pressure
1033.91 hPa